sensor_id;sensor_type;location;lat;lon;timestamp;P1;durP1;ratioP1;P2;durP2;ratioP2
5591;SDS011;2818;49.790;9.958;2022-11-20T00:01:07;35.87;;;20.37;;
5591;SDS011;2818;49.790;9.958;2022-11-20T00:03:39;37.97;;;21.30;;
5591;SDS011;2818;49.790;9.958;2022-11-20T00:06:07;39.50;;;21.20;;
5591;SDS011;2818;49.790;9.958;2022-11-20T00:08:36;35.03;;;19.10;;
5591;SDS011;2818;49.790;9.958;2022-11-20T00:11:06;38.37;;;21.10;;
5591;SDS011;2818;49.790;9.958;2022-11-20T00:13:41;35.00;;;20.10;;
5591;SDS011;2818;49.790;9.958;2022-11-20T00:16:12;36.43;;;20.67;;
5591;SDS011;2818;49.790;9.958;2022-11-20T00:18:40;42.77;;;21.57;;
5591;SDS011;2818;49.790;9.958;2022-11-20T00:21:16;36.40;;;20.13;;
5591;SDS011;2818;49.790;9.958;2022-11-20T00:23:43;36.70;;;20.17;;
5591;SDS011;2818;49.790;9.958;2022-11-20T00:26:12;39.77;;;20.87;;
5591;SDS011;2818;49.790;9.958;2022-11-20T00:28:40;39.17;;;21.80;;
5591;SDS011;2818;49.790;9.958;2022-11-20T00:31:13;37.17;;;19.90;;
5591;SDS011;2818;49.790;9.958;2022-11-20T00:33:41;35.50;;;20.30;;
5591;SDS011;2818;49.790;9.958;2022-11-20T00:36:13;41.10;;;22.20;;
5591;SDS011;2818;49.790;9.958;2022-11-20T00:38:42;37.47;;;21.47;;
5591;SDS011;2818;49.790;9.958;2022-11-20T00:41:10;40.23;;;22.17;;
5591;SDS011;2818;49.790;9.958;2022-11-20T00:43:39;40.40;;;20.23;;
5591;SDS011;2818;49.790;9.958;2022-11-20T00:46:08;37.23;;;20.53;;
5591;SDS011;2818;49.790;9.958;2022-11-20T00:48:36;40.27;;;21.37;;
5591;SDS011;2818;49.790;9.958;2022-11-20T00:51:03;37.40;;;20.30;;
5591;SDS011;2818;49.790;9.958;2022-11-20T00:53:30;37.47;;;20.90;;
5591;SDS011;2818;49.790;9.958;2022-11-20T00:56:02;40.97;;;20.10;;
5591;SDS011;2818;49.790;9.958;2022-11-20T00:58:31;40.27;;;21.10;;
5591;SDS011;2818;49.790;9.958;2022-11-20T01:01:02;37.07;;;21.07;;
5591;SDS011;2818;49.790;9.958;2022-11-20T01:03:31;43.93;;;21.70;;
5591;SDS011;2818;49.790;9.958;2022-11-20T01:05:59;37.47;;;21.00;;
5591;SDS011;2818;49.790;9.958;2022-11-20T01:08:31;38.47;;;20.10;;
5591;SDS011;2818;49.790;9.958;2022-11-20T01:11:03;36.50;;;21.20;;
5591;SDS011;2818;49.790;9.958;2022-11-20T01:13:31;40.07;;;21.27;;
5591;SDS011;2818;49.790;9.958;2022-11-20T01:18:37;40.67;;;22.00;;
5591;SDS011;2818;49.790;9.958;2022-11-20T01:21:06;39.93;;;21.33;;
5591;SDS011;2818;49.790;9.958;2022-11-20T01:23:36;41.53;;;21.33;;
5591;SDS011;2818;49.790;9.958;2022-11-20T01:26:04;38.97;;;20.90;;
5591;SDS011;2818;49.790;9.958;2022-11-20T01:28:37;40.60;;;21.97;;
5591;SDS011;2818;49.790;9.958;2022-11-20T01:31:15;40.40;;;21.70;;
5591;SDS011;2818;49.790;9.958;2022-11-20T01:33:43;40.23;;;21.40;;
5591;SDS011;2818;49.790;9.958;2022-11-20T01:36:11;40.33;;;21.13;;
5591;SDS011;2818;49.790;9.958;2022-11-20T01:38:38;36.13;;;20.53;;
5591;SDS011;2818;49.790;9.958;2022-11-20T01:41:06;41.73;;;21.00;;
5591;SDS011;2818;49.790;9.958;2022-11-20T01:43:33;38.03;;;20.30;;
5591;SDS011;2818;49.790;9.958;2022-11-20T01:51:21;40.13;;;21.27;;
5591;SDS011;2818;49.790;9.958;2022-11-20T01:53:49;35.70;;;19.80;;
5591;SDS011;2818;49.790;9.958;2022-11-20T01:56:20;35.50;;;20.43;;
5591;SDS011;2818;49.790;9.958;2022-11-20T01:58:48;40.17;;;20.10;;
5591;SDS011;2818;49.790;9.958;2022-11-20T02:01:20;40.50;;;21.37;;
5591;SDS011;2818;49.790;9.958;2022-11-20T02:03:47;43.07;;;22.83;;
5591;SDS011;2818;49.790;9.958;2022-11-20T02:08:56;38.93;;;21.00;;
5591;SDS011;2818;49.790;9.958;2022-11-20T02:11:23;37.77;;;20.77;;
5591;SDS011;2818;49.790;9.958;2022-11-20T02:13:50;39.77;;;21.40;;
5591;SDS011;2818;49.790;9.958;2022-11-20T02:18:47;36.90;;;20.27;;
5591;SDS011;2818;49.790;9.958;2022-11-20T02:21:21;41.57;;;22.23;;
5591;SDS011;2818;49.790;9.958;2022-11-20T02:26:24;40.07;;;21.10;;
5591;SDS011;2818;49.790;9.958;2022-11-20T02:28:54;46.33;;;22.07;;
5591;SDS011;2818;49.790;9.958;2022-11-20T02:31:21;39.77;;;21.13;;
5591;SDS011;2818;49.790;9.958;2022-11-20T02:33:53;40.07;;;20.97;;
5591;SDS011;2818;49.790;9.958;2022-11-20T02:36:21;41.50;;;22.10;;
5591;SDS011;2818;49.790;9.958;2022-11-20T02:38:48;36.03;;;20.90;;
5591;SDS011;2818;49.790;9.958;2022-11-20T02:41:16;37.60;;;21.13;;
5591;SDS011;2818;49.790;9.958;2022-11-20T02:43:42;38.80;;;20.63;;
5591;SDS011;2818;49.790;9.958;2022-11-20T02:46:09;39.00;;;20.97;;
5591;SDS011;2818;49.790;9.958;2022-11-20T02:48:36;38.37;;;21.20;;
5591;SDS011;2818;49.790;9.958;2022-11-20T02:51:03;40.40;;;21.37;;
5591;SDS011;2818;49.790;9.958;2022-11-20T02:53:30;40.00;;;21.20;;
5591;SDS011;2818;49.790;9.958;2022-11-20T02:55:57;38.80;;;21.33;;
5591;SDS011;2818;49.790;9.958;2022-11-20T02:58:24;37.83;;;21.50;;
5591;SDS011;2818;49.790;9.958;2022-11-20T03:00:51;43.40;;;23.23;;
5591;SDS011;2818;49.790;9.958;2022-11-20T03:03:18;39.27;;;20.50;;
5591;SDS011;2818;49.790;9.958;2022-11-20T03:05:45;41.97;;;21.77;;
5591;SDS011;2818;49.790;9.958;2022-11-20T03:08:12;38.27;;;21.27;;
5591;SDS011;2818;49.790;9.958;2022-11-20T03:10:39;39.77;;;21.70;;
5591;SDS011;2818;49.790;9.958;2022-11-20T03:13:06;39.03;;;22.17;;
5591;SDS011;2818;49.790;9.958;2022-11-20T03:15:33;39.63;;;21.90;;
5591;SDS011;2818;49.790;9.958;2022-11-20T03:18:01;36.60;;;20.37;;
5591;SDS011;2818;49.790;9.958;2022-11-20T03:20:29;39.70;;;21.10;;
5591;SDS011;2818;49.790;9.958;2022-11-20T03:22:56;42.53;;;21.20;;
5591;SDS011;2818;49.790;9.958;2022-11-20T03:25:23;38.03;;;20.23;;
5591;SDS011;2818;49.790;9.958;2022-11-20T03:27:50;38.63;;;21.00;;
5591;SDS011;2818;49.790;9.958;2022-11-20T03:30:17;41.37;;;21.60;;
5591;SDS011;2818;49.790;9.958;2022-11-20T03:32:44;43.03;;;22.07;;
5591;SDS011;2818;49.790;9.958;2022-11-20T03:35:11;37.87;;;20.83;;
5591;SDS011;2818;49.790;9.958;2022-11-20T03:37:38;41.10;;;21.60;;
5591;SDS011;2818;49.790;9.958;2022-11-20T03:40:05;39.90;;;21.30;;
5591;SDS011;2818;49.790;9.958;2022-11-20T03:42:32;43.60;;;22.37;;
5591;SDS011;2818;49.790;9.958;2022-11-20T03:45:18;40.43;;;21.73;;
5591;SDS011;2818;49.790;9.958;2022-11-20T03:47:45;41.00;;;21.37;;
5591;SDS011;2818;49.790;9.958;2022-11-20T03:50:12;44.13;;;23.30;;
5591;SDS011;2818;49.790;9.958;2022-11-20T03:52:40;44.97;;;21.97;;
5591;SDS011;2818;49.790;9.958;2022-11-20T03:55:07;43.70;;;22.03;;
5591;SDS011;2818;49.790;9.958;2022-11-20T03:57:34;40.27;;;21.77;;
5591;SDS011;2818;49.790;9.958;2022-11-20T04:00:01;45.70;;;21.97;;
5591;SDS011;2818;49.790;9.958;2022-11-20T04:02:29;39.17;;;21.20;;
5591;SDS011;2818;49.790;9.958;2022-11-20T04:04:56;45.10;;;23.03;;
5591;SDS011;2818;49.790;9.958;2022-11-20T04:07:23;45.77;;;23.10;;
5591;SDS011;2818;49.790;9.958;2022-11-20T04:09:50;41.70;;;21.80;;
5591;SDS011;2818;49.790;9.958;2022-11-20T04:12:17;43.07;;;22.33;;
5591;SDS011;2818;49.790;9.958;2022-11-20T04:14:43;44.00;;;23.47;;
5591;SDS011;2818;49.790;9.958;2022-11-20T04:17:10;43.87;;;22.57;;
5591;SDS011;2818;49.790;9.958;2022-11-20T04:19:37;42.77;;;22.20;;
5591;SDS011;2818;49.790;9.958;2022-11-20T04:22:04;42.63;;;22.10;;
5591;SDS011;2818;49.790;9.958;2022-11-20T04:24:31;41.63;;;21.37;;
5591;SDS011;2818;49.790;9.958;2022-11-20T04:26:58;41.60;;;21.67;;
5591;SDS011;2818;49.790;9.958;2022-11-20T04:29:25;40.00;;;21.97;;
5591;SDS011;2818;49.790;9.958;2022-11-20T04:31:52;40.83;;;21.43;;
5591;SDS011;2818;49.790;9.958;2022-11-20T04:34:18;42.47;;;21.83;;
5591;SDS011;2818;49.790;9.958;2022-11-20T04:36:45;41.60;;;21.70;;
5591;SDS011;2818;49.790;9.958;2022-11-20T04:39:13;40.70;;;20.97;;
5591;SDS011;2818;49.790;9.958;2022-11-20T04:41:41;42.17;;;20.63;;
5591;SDS011;2818;49.790;9.958;2022-11-20T04:44:08;39.73;;;21.40;;
5591;SDS011;2818;49.790;9.958;2022-11-20T04:46:39;43.90;;;21.53;;
5591;SDS011;2818;49.790;9.958;2022-11-20T04:49:07;43.40;;;22.67;;
5591;SDS011;2818;49.790;9.958;2022-11-20T04:51:39;38.77;;;20.40;;
5591;SDS011;2818;49.790;9.958;2022-11-20T04:54:06;40.07;;;21.20;;
5591;SDS011;2818;49.790;9.958;2022-11-20T04:56:33;41.90;;;21.40;;
5591;SDS011;2818;49.790;9.958;2022-11-20T04:59:00;39.03;;;21.30;;
5591;SDS011;2818;49.790;9.958;2022-11-20T05:01:28;39.67;;;21.10;;
5591;SDS011;2818;49.790;9.958;2022-11-20T05:03:55;44.73;;;22.20;;
5591;SDS011;2818;49.790;9.958;2022-11-20T05:06:22;42.70;;;21.77;;
5591;SDS011;2818;49.790;9.958;2022-11-20T05:08:49;42.53;;;21.63;;
5591;SDS011;2818;49.790;9.958;2022-11-20T05:11:17;43.00;;;21.53;;
5591;SDS011;2818;49.790;9.958;2022-11-20T05:13:46;45.53;;;22.30;;
5591;SDS011;2818;49.790;9.958;2022-11-20T05:16:18;42.80;;;21.77;;
5591;SDS011;2818;49.790;9.958;2022-11-20T05:18:46;43.73;;;21.87;;
5591;SDS011;2818;49.790;9.958;2022-11-20T05:21:13;42.90;;;22.57;;
5591;SDS011;2818;49.790;9.958;2022-11-20T05:23:41;45.80;;;22.87;;
5591;SDS011;2818;49.790;9.958;2022-11-20T05:26:12;41.80;;;20.93;;
5591;SDS011;2818;49.790;9.958;2022-11-20T05:28:47;43.50;;;21.00;;
5591;SDS011;2818;49.790;9.958;2022-11-20T05:31:17;41.83;;;21.10;;
5591;SDS011;2818;49.790;9.958;2022-11-20T05:33:52;45.20;;;21.60;;
5591;SDS011;2818;49.790;9.958;2022-11-20T05:36:19;42.90;;;22.07;;
5591;SDS011;2818;49.790;9.958;2022-11-20T05:38:46;45.17;;;22.50;;
5591;SDS011;2818;49.790;9.958;2022-11-20T05:41:17;45.23;;;23.37;;
5591;SDS011;2818;49.790;9.958;2022-11-20T05:43:46;46.83;;;22.37;;
5591;SDS011;2818;49.790;9.958;2022-11-20T05:46:15;46.83;;;22.43;;
5591;SDS011;2818;49.790;9.958;2022-11-20T05:48:50;45.23;;;22.13;;
5591;SDS011;2818;49.790;9.958;2022-11-20T05:51:17;42.30;;;21.90;;
5591;SDS011;2818;49.790;9.958;2022-11-20T05:53:45;45.47;;;23.30;;
5591;SDS011;2818;49.790;9.958;2022-11-20T05:56:15;46.07;;;22.90;;
5591;SDS011;2818;49.790;9.958;2022-11-20T05:58:44;47.07;;;23.90;;
5591;SDS011;2818;49.790;9.958;2022-11-20T06:03:40;43.13;;;22.13;;
5591;SDS011;2818;49.790;9.958;2022-11-20T06:06:12;43.80;;;23.43;;
5591;SDS011;2818;49.790;9.958;2022-11-20T06:08:40;48.03;;;23.37;;
5591;SDS011;2818;49.790;9.958;2022-11-20T06:11:08;45.90;;;22.60;;
5591;SDS011;2818;49.790;9.958;2022-11-20T06:13:37;46.37;;;23.33;;
5591;SDS011;2818;49.790;9.958;2022-11-20T06:16:08;45.20;;;23.20;;
5591;SDS011;2818;49.790;9.958;2022-11-20T06:18:35;45.80;;;23.00;;
5591;SDS011;2818;49.790;9.958;2022-11-20T06:21:07;56.67;;;23.93;;
5591;SDS011;2818;49.790;9.958;2022-11-20T06:23:36;45.90;;;22.77;;
5591;SDS011;2818;49.790;9.958;2022-11-20T06:26:04;46.63;;;23.10;;
5591;SDS011;2818;49.790;9.958;2022-11-20T06:28:36;49.10;;;23.73;;
5591;SDS011;2818;49.790;9.958;2022-11-20T06:31:04;49.60;;;23.97;;
5591;SDS011;2818;49.790;9.958;2022-11-20T06:33:31;46.93;;;23.37;;
5591;SDS011;2818;49.790;9.958;2022-11-20T06:35:59;48.17;;;23.47;;
5591;SDS011;2818;49.790;9.958;2022-11-20T06:38:34;48.67;;;22.90;;
5591;SDS011;2818;49.790;9.958;2022-11-20T06:41:01;47.83;;;22.73;;
5591;SDS011;2818;49.790;9.958;2022-11-20T06:43:29;45.00;;;22.63;;
5591;SDS011;2818;49.790;9.958;2022-11-20T06:45:56;49.07;;;23.10;;
5591;SDS011;2818;49.790;9.958;2022-11-20T06:48:28;42.90;;;22.40;;
5591;SDS011;2818;49.790;9.958;2022-11-20T06:50:57;48.90;;;24.20;;
5591;SDS011;2818;49.790;9.958;2022-11-20T06:53:25;49.57;;;24.50;;
5591;SDS011;2818;49.790;9.958;2022-11-20T06:55:52;50.93;;;24.87;;
5591;SDS011;2818;49.790;9.958;2022-11-20T06:58:22;46.60;;;22.60;;
5591;SDS011;2818;49.790;9.958;2022-11-20T07:00:49;47.23;;;23.10;;
5591;SDS011;2818;49.790;9.958;2022-11-20T07:03:16;52.63;;;23.60;;
5591;SDS011;2818;49.790;9.958;2022-11-20T07:05:43;46.63;;;22.73;;
5591;SDS011;2818;49.790;9.958;2022-11-20T07:08:11;48.17;;;23.80;;
5591;SDS011;2818;49.790;9.958;2022-11-20T07:10:38;49.97;;;22.97;;
5591;SDS011;2818;49.790;9.958;2022-11-20T07:13:05;53.17;;;24.60;;
5591;SDS011;2818;49.790;9.958;2022-11-20T07:15:33;51.60;;;24.20;;
5591;SDS011;2818;49.790;9.958;2022-11-20T07:18:00;48.40;;;22.90;;
5591;SDS011;2818;49.790;9.958;2022-11-20T07:20:27;53.13;;;23.50;;
5591;SDS011;2818;49.790;9.958;2022-11-20T07:22:55;53.10;;;23.90;;
5591;SDS011;2818;49.790;9.958;2022-11-20T07:25:22;56.20;;;24.33;;
5591;SDS011;2818;49.790;9.958;2022-11-20T07:27:56;50.10;;;23.90;;
5591;SDS011;2818;49.790;9.958;2022-11-20T07:30:27;50.60;;;23.73;;
5591;SDS011;2818;49.790;9.958;2022-11-20T07:32:55;53.60;;;23.53;;
5591;SDS011;2818;49.790;9.958;2022-11-20T07:35:23;51.90;;;23.47;;
5591;SDS011;2818;49.790;9.958;2022-11-20T07:37:50;53.20;;;24.27;;
5591;SDS011;2818;49.790;9.958;2022-11-20T07:40:17;51.37;;;23.73;;
5591;SDS011;2818;49.790;9.958;2022-11-20T07:42:48;56.73;;;25.03;;
5591;SDS011;2818;49.790;9.958;2022-11-20T07:45:16;58.17;;;24.37;;
5591;SDS011;2818;49.790;9.958;2022-11-20T07:47:47;47.90;;;23.73;;
5591;SDS011;2818;49.790;9.958;2022-11-20T07:50:15;53.67;;;24.67;;
5591;SDS011;2818;49.790;9.958;2022-11-20T07:52:42;55.57;;;24.70;;
5591;SDS011;2818;49.790;9.958;2022-11-20T07:55:09;50.43;;;23.83;;
5591;SDS011;2818;49.790;9.958;2022-11-20T07:57:37;52.00;;;25.13;;
5591;SDS011;2818;49.790;9.958;2022-11-20T08:00:04;51.60;;;24.10;;
5591;SDS011;2818;49.790;9.958;2022-11-20T08:02:33;50.03;;;24.00;;
5591;SDS011;2818;49.790;9.958;2022-11-20T08:05:00;50.10;;;24.00;;
5591;SDS011;2818;49.790;9.958;2022-11-20T08:07:27;53.33;;;24.80;;
5591;SDS011;2818;49.790;9.958;2022-11-20T08:09:53;57.47;;;24.87;;
5591;SDS011;2818;49.790;9.958;2022-11-20T08:12:20;58.10;;;24.80;;
5591;SDS011;2818;49.790;9.958;2022-11-20T08:15:06;51.90;;;22.83;;
5591;SDS011;2818;49.790;9.958;2022-11-20T08:17:38;61.97;;;27.17;;
5591;SDS011;2818;49.790;9.958;2022-11-20T08:20:05;56.53;;;26.80;;
5591;SDS011;2818;49.790;9.958;2022-11-20T08:22:32;54.40;;;26.17;;
5591;SDS011;2818;49.790;9.958;2022-11-20T08:24:59;55.00;;;25.77;;
5591;SDS011;2818;49.790;9.958;2022-11-20T08:27:26;60.50;;;24.50;;
5591;SDS011;2818;49.790;9.958;2022-11-20T08:29:53;54.03;;;26.30;;
5591;SDS011;2818;49.790;9.958;2022-11-20T08:32:21;56.77;;;26.00;;
5591;SDS011;2818;49.790;9.958;2022-11-20T08:34:47;59.37;;;28.47;;
5591;SDS011;2818;49.790;9.958;2022-11-20T08:37:14;50.73;;;26.20;;
5591;SDS011;2818;49.790;9.958;2022-11-20T08:39:41;52.13;;;26.17;;
5591;SDS011;2818;49.790;9.958;2022-11-20T08:42:08;59.10;;;27.37;;
5591;SDS011;2818;49.790;9.958;2022-11-20T08:44:35;72.50;;;29.20;;
5591;SDS011;2818;49.790;9.958;2022-11-20T08:47:02;51.90;;;24.30;;
5591;SDS011;2818;49.790;9.958;2022-11-20T08:49:29;55.63;;;24.23;;
5591;SDS011;2818;49.790;9.958;2022-11-20T08:51:56;55.40;;;24.27;;
5591;SDS011;2818;49.790;9.958;2022-11-20T08:54:23;53.27;;;24.37;;
5591;SDS011;2818;49.790;9.958;2022-11-20T08:56:50;51.93;;;23.77;;
5591;SDS011;2818;49.790;9.958;2022-11-20T08:59:17;49.00;;;23.27;;
5591;SDS011;2818;49.790;9.958;2022-11-20T09:02:04;46.57;;;22.70;;
5591;SDS011;2818;49.790;9.958;2022-11-20T09:04:31;48.03;;;23.27;;
5591;SDS011;2818;49.790;9.958;2022-11-20T09:06:59;39.53;;;20.90;;
5591;SDS011;2818;49.790;9.958;2022-11-20T09:09:26;41.40;;;19.50;;
5591;SDS011;2818;49.790;9.958;2022-11-20T09:11:53;36.73;;;20.43;;
5591;SDS011;2818;49.790;9.958;2022-11-20T09:14:20;36.33;;;18.67;;
5591;SDS011;2818;49.790;9.958;2022-11-20T09:16:47;41.70;;;20.70;;
5591;SDS011;2818;49.790;9.958;2022-11-20T09:19:14;41.57;;;20.33;;
5591;SDS011;2818;49.790;9.958;2022-11-20T09:22:01;40.90;;;20.90;;
5591;SDS011;2818;49.790;9.958;2022-11-20T09:24:28;46.90;;;23.63;;
5591;SDS011;2818;49.790;9.958;2022-11-20T09:26:55;42.87;;;20.77;;
5591;SDS011;2818;49.790;9.958;2022-11-20T09:29:22;38.13;;;20.47;;
5591;SDS011;2818;49.790;9.958;2022-11-20T09:31:49;39.67;;;20.20;;
5591;SDS011;2818;49.790;9.958;2022-11-20T09:34:16;47.60;;;20.70;;
5591;SDS011;2818;49.790;9.958;2022-11-20T09:36:43;40.60;;;19.80;;
5591;SDS011;2818;49.790;9.958;2022-11-20T09:39:11;38.30;;;19.00;;
5591;SDS011;2818;49.790;9.958;2022-11-20T09:44:36;37.93;;;19.87;;
5591;SDS011;2818;49.790;9.958;2022-11-20T09:47:43;39.73;;;19.77;;
5591;SDS011;2818;49.790;9.958;2022-11-20T09:55:54;42.40;;;19.70;;
5591;SDS011;2818;49.790;9.958;2022-11-20T09:58:31;40.00;;;20.30;;
5591;SDS011;2818;49.790;9.958;2022-11-20T10:01:10;41.50;;;20.70;;
5591;SDS011;2818;49.790;9.958;2022-11-20T10:06:41;40.93;;;20.93;;
5591;SDS011;2818;49.790;9.958;2022-11-20T10:09:35;42.93;;;20.50;;
5591;SDS011;2818;49.790;9.958;2022-11-20T10:15:38;44.10;;;21.17;;
5591;SDS011;2818;49.790;9.958;2022-11-20T10:26:21;41.40;;;20.80;;
5591;SDS011;2818;49.790;9.958;2022-11-20T10:29:32;42.73;;;20.17;;
5591;SDS011;2818;49.790;9.958;2022-11-20T10:32:02;40.80;;;20.97;;
5591;SDS011;2818;49.790;9.958;2022-11-20T10:37:24;36.03;;;19.43;;
5591;SDS011;2818;49.790;9.958;2022-11-20T10:43:01;32.90;;;19.40;;
5591;SDS011;2818;49.790;9.958;2022-11-20T10:48:22;33.57;;;17.47;;
5591;SDS011;2818;49.790;9.958;2022-11-20T10:56:47;31.00;;;18.10;;
5591;SDS011;2818;49.790;9.958;2022-11-20T11:04:47;27.40;;;16.17;;
5591;SDS011;2818;49.790;9.958;2022-11-20T11:07:26;24.47;;;15.50;;
5591;SDS011;2818;49.790;9.958;2022-11-20T11:09:57;30.00;;;15.83;;
5591;SDS011;2818;49.790;9.958;2022-11-20T11:12:25;27.20;;;16.20;;
5591;SDS011;2818;49.790;9.958;2022-11-20T11:14:57;21.23;;;14.20;;
5591;SDS011;2818;49.790;9.958;2022-11-20T11:17:31;25.83;;;15.53;;
5591;SDS011;2818;49.790;9.958;2022-11-20T11:22:31;26.50;;;15.83;;
5591;SDS011;2818;49.790;9.958;2022-11-20T11:25:25;27.73;;;16.13;;
5591;SDS011;2818;49.790;9.958;2022-11-20T11:28:01;20.63;;;13.60;;
5591;SDS011;2818;49.790;9.958;2022-11-20T11:30:40;22.50;;;13.93;;
5591;SDS011;2818;49.790;9.958;2022-11-20T11:33:17;24.43;;;14.27;;
5591;SDS011;2818;49.790;9.958;2022-11-20T11:35:47;22.70;;;13.53;;
5591;SDS011;2818;49.790;9.958;2022-11-20T11:38:19;25.40;;;13.60;;
5591;SDS011;2818;49.790;9.958;2022-11-20T11:41:05;26.53;;;14.40;;
5591;SDS011;2818;49.790;9.958;2022-11-20T11:43:36;21.90;;;13.30;;
5591;SDS011;2818;49.790;9.958;2022-11-20T11:51:29;22.53;;;12.00;;
5591;SDS011;2818;49.790;9.958;2022-11-20T11:54:15;18.73;;;12.00;;
5591;SDS011;2818;49.790;9.958;2022-11-20T11:56:48;19.30;;;12.67;;
5591;SDS011;2818;49.790;9.958;2022-11-20T11:59:25;17.67;;;11.70;;
5591;SDS011;2818;49.790;9.958;2022-11-20T12:04:51;18.07;;;11.33;;
5591;SDS011;2818;49.790;9.958;2022-11-20T12:07:36;18.30;;;11.43;;
5591;SDS011;2818;49.790;9.958;2022-11-20T12:10:15;20.67;;;11.13;;
5591;SDS011;2818;49.790;9.958;2022-11-20T12:12:53;12.67;;;10.37;;
5591;SDS011;2818;49.790;9.958;2022-11-20T12:15:30;17.10;;;11.40;;
5591;SDS011;2818;49.790;9.958;2022-11-20T12:18:00;16.53;;;11.70;;
5591;SDS011;2818;49.790;9.958;2022-11-20T12:20:32;15.27;;;11.00;;
5591;SDS011;2818;49.790;9.958;2022-11-20T12:25:44;16.27;;;11.20;;
5591;SDS011;2818;49.790;9.958;2022-11-20T12:28:17;15.00;;;11.50;;
5591;SDS011;2818;49.790;9.958;2022-11-20T12:33:52;15.27;;;11.30;;
5591;SDS011;2818;49.790;9.958;2022-11-20T12:39:17;15.97;;;12.23;;
5591;SDS011;2818;49.790;9.958;2022-11-20T12:42:06;14.50;;;10.67;;
5591;SDS011;2818;49.790;9.958;2022-11-20T13:07:03;13.60;;;9.90;;
5591;SDS011;2818;49.790;9.958;2022-11-20T13:09:34;15.00;;;11.17;;
5591;SDS011;2818;49.790;9.958;2022-11-20T13:12:10;14.17;;;10.40;;
5591;SDS011;2818;49.790;9.958;2022-11-20T13:14:53;11.97;;;9.20;;
5591;SDS011;2818;49.790;9.958;2022-11-20T13:17:28;11.77;;;9.40;;
5591;SDS011;2818;49.790;9.958;2022-11-20T13:20:13;13.17;;;10.53;;
5591;SDS011;2818;49.790;9.958;2022-11-20T13:25:49;17.90;;;10.90;;
5591;SDS011;2818;49.790;9.958;2022-11-20T13:30:36;14.47;;;10.57;;
5591;SDS011;2818;49.790;9.958;2022-11-20T13:33:49;15.87;;;11.50;;
5591;SDS011;2818;49.790;9.958;2022-11-20T13:36:22;15.27;;;10.70;;
5591;SDS011;2818;49.790;9.958;2022-11-20T13:38:51;15.67;;;10.90;;
5591;SDS011;2818;49.790;9.958;2022-11-20T13:41:23;13.43;;;10.40;;
5591;SDS011;2818;49.790;9.958;2022-11-20T13:44:04;16.40;;;10.73;;
5591;SDS011;2818;49.790;9.958;2022-11-20T13:46:40;15.17;;;10.20;;
5591;SDS011;2818;49.790;9.958;2022-11-20T13:55:12;13.13;;;10.40;;
5591;SDS011;2818;49.790;9.958;2022-11-20T13:58:11;13.70;;;10.07;;
5591;SDS011;2818;49.790;9.958;2022-11-20T14:00:56;12.77;;;9.30;;
5591;SDS011;2818;49.790;9.958;2022-11-20T14:03:33;10.60;;;8.93;;
5591;SDS011;2818;49.790;9.958;2022-11-20T14:06:25;12.63;;;9.67;;
5591;SDS011;2818;49.790;9.958;2022-11-20T14:08:58;12.50;;;9.77;;
5591;SDS011;2818;49.790;9.958;2022-11-20T14:11:26;12.90;;;9.50;;
5591;SDS011;2818;49.790;9.958;2022-11-20T14:16:25;12.17;;;10.07;;
5591;SDS011;2818;49.790;9.958;2022-11-20T14:18:54;11.80;;;9.30;;
5591;SDS011;2818;49.790;9.958;2022-11-20T14:21:29;11.57;;;9.10;;
5591;SDS011;2818;49.790;9.958;2022-11-20T14:24:06;12.47;;;10.00;;
5591;SDS011;2818;49.790;9.958;2022-11-20T14:26:33;12.83;;;9.47;;
5591;SDS011;2818;49.790;9.958;2022-11-20T14:29:01;12.43;;;9.30;;
5591;SDS011;2818;49.790;9.958;2022-11-20T14:31:28;10.87;;;9.07;;
5591;SDS011;2818;49.790;9.958;2022-11-20T14:33:55;12.77;;;9.67;;
5591;SDS011;2818;49.790;9.958;2022-11-20T14:36:23;12.30;;;10.47;;
5591;SDS011;2818;49.790;9.958;2022-11-20T14:38:51;15.23;;;10.00;;
5591;SDS011;2818;49.790;9.958;2022-11-20T14:41:20;12.77;;;9.80;;
5591;SDS011;2818;49.790;9.958;2022-11-20T14:43:59;16.17;;;10.63;;
5591;SDS011;2818;49.790;9.958;2022-11-20T14:46:26;15.20;;;10.43;;
5591;SDS011;2818;49.790;9.958;2022-11-20T14:48:55;16.10;;;11.20;;
5591;SDS011;2818;49.790;9.958;2022-11-20T14:51:33;12.00;;;10.07;;
5591;SDS011;2818;49.790;9.958;2022-11-20T14:54:18;129.73;;;58.80;;
5591;SDS011;2818;49.790;9.958;2022-11-20T14:57:00;15.13;;;11.13;;
5591;SDS011;2818;49.790;9.958;2022-11-20T14:59:29;13.33;;;10.03;;
5591;SDS011;2818;49.790;9.958;2022-11-20T15:01:59;11.53;;;9.47;;
5591;SDS011;2818;49.790;9.958;2022-11-20T15:04:31;15.00;;;9.97;;
5591;SDS011;2818;49.790;9.958;2022-11-20T15:06:59;13.83;;;9.60;;
5591;SDS011;2818;49.790;9.958;2022-11-20T15:09:26;14.87;;;9.70;;
5591;SDS011;2818;49.790;9.958;2022-11-20T15:12:03;13.23;;;9.70;;
5591;SDS011;2818;49.790;9.958;2022-11-20T15:14:30;12.20;;;9.20;;
5591;SDS011;2818;49.790;9.958;2022-11-20T15:16:58;15.50;;;10.50;;
5591;SDS011;2818;49.790;9.958;2022-11-20T15:19:25;51.93;;;28.53;;
5591;SDS011;2818;49.790;9.958;2022-11-20T15:21:53;44.17;;;23.03;;
5591;SDS011;2818;49.790;9.958;2022-11-20T15:24:20;13.60;;;10.63;;
5591;SDS011;2818;49.790;9.958;2022-11-20T15:26:47;14.90;;;10.77;;
5591;SDS011;2818;49.790;9.958;2022-11-20T15:29:15;16.70;;;12.53;;
5591;SDS011;2818;49.790;9.958;2022-11-20T15:31:47;17.60;;;12.87;;
5591;SDS011;2818;49.790;9.958;2022-11-20T15:34:14;18.20;;;12.70;;
5591;SDS011;2818;49.790;9.958;2022-11-20T15:36:41;13.07;;;11.10;;
5591;SDS011;2818;49.790;9.958;2022-11-20T15:39:09;17.13;;;12.57;;
5591;SDS011;2818;49.790;9.958;2022-11-20T15:41:38;17.67;;;11.60;;
5591;SDS011;2818;49.790;9.958;2022-11-20T15:44:05;16.40;;;12.10;;
5591;SDS011;2818;49.790;9.958;2022-11-20T15:46:33;16.00;;;11.60;;
5591;SDS011;2818;49.790;9.958;2022-11-20T15:49:05;18.63;;;12.37;;
5591;SDS011;2818;49.790;9.958;2022-11-20T15:51:36;16.60;;;11.63;;
5591;SDS011;2818;49.790;9.958;2022-11-20T15:54:11;18.23;;;12.10;;
5591;SDS011;2818;49.790;9.958;2022-11-20T15:56:40;19.97;;;12.10;;
5591;SDS011;2818;49.790;9.958;2022-11-20T15:59:06;18.43;;;11.30;;
5591;SDS011;2818;49.790;9.958;2022-11-20T16:01:34;16.97;;;12.07;;
5591;SDS011;2818;49.790;9.958;2022-11-20T16:04:01;16.83;;;11.63;;
5591;SDS011;2818;49.790;9.958;2022-11-20T16:06:28;116.57;;;48.47;;
5591;SDS011;2818;49.790;9.958;2022-11-20T16:08:55;20.07;;;12.97;;
5591;SDS011;2818;49.790;9.958;2022-11-20T16:11:22;18.20;;;12.30;;
5591;SDS011;2818;49.790;9.958;2022-11-20T16:13:49;24.73;;;14.50;;
5591;SDS011;2818;49.790;9.958;2022-11-20T16:16:35;19.17;;;12.07;;
5591;SDS011;2818;49.790;9.958;2022-11-20T16:19:03;23.53;;;15.67;;
5591;SDS011;2818;49.790;9.958;2022-11-20T16:21:30;27.83;;;15.90;;
5591;SDS011;2818;49.790;9.958;2022-11-20T16:24:01;26.50;;;17.33;;
5591;SDS011;2818;49.790;9.958;2022-11-20T16:26:30;27.83;;;15.13;;
5591;SDS011;2818;49.790;9.958;2022-11-20T16:28:58;23.77;;;13.47;;
5591;SDS011;2818;49.790;9.958;2022-11-20T16:31:25;26.37;;;13.37;;
5591;SDS011;2818;49.790;9.958;2022-11-20T16:33:53;22.30;;;14.37;;
5591;SDS011;2818;49.790;9.958;2022-11-20T16:36:22;19.33;;;13.00;;
5591;SDS011;2818;49.790;9.958;2022-11-20T16:38:53;22.90;;;14.40;;
5591;SDS011;2818;49.790;9.958;2022-11-20T16:41:22;23.23;;;13.00;;
5591;SDS011;2818;49.790;9.958;2022-11-20T16:43:55;18.27;;;12.97;;
5591;SDS011;2818;49.790;9.958;2022-11-20T16:46:24;25.00;;;16.23;;
5591;SDS011;2818;49.790;9.958;2022-11-20T16:48:56;22.33;;;15.10;;
5591;SDS011;2818;49.790;9.958;2022-11-20T16:51:25;23.07;;;13.90;;
5591;SDS011;2818;49.790;9.958;2022-11-20T16:53:53;19.70;;;13.57;;
5591;SDS011;2818;49.790;9.958;2022-11-20T16:56:24;22.20;;;14.40;;
5591;SDS011;2818;49.790;9.958;2022-11-20T16:58:53;27.40;;;15.70;;
5591;SDS011;2818;49.790;9.958;2022-11-20T17:01:22;22.90;;;16.00;;
5591;SDS011;2818;49.790;9.958;2022-11-20T17:06:32;31.00;;;17.30;;